sensor_id;sensor_type;location;lat;lon;timestamp;temperature;humidity
45233;DHT22;30969;51.052;17.056;2022-09-09T00:00:49;19.20;76.70
45233;DHT22;30969;51.052;17.056;2022-09-09T00:06:11;19.10;76.70
45233;DHT22;30969;51.052;17.056;2022-09-09T00:11:19;19.10;76.60
45233;DHT22;30969;51.052;17.056;2022-09-09T00:16:35;19.00;76.70
45233;DHT22;30969;51.052;17.056;2022-09-09T00:21:47;18.90;76.90
45233;DHT22;30969;51.052;17.056;2022-09-09T00:27:02;18.90;76.80
45233;DHT22;30969;51.052;17.056;2022-09-09T00:32:13;18.80;76.60
45233;DHT22;30969;51.052;17.056;2022-09-09T00:37:18;18.90;76.70
45233;DHT22;30969;51.052;17.056;2022-09-09T00:42:25;18.80;76.90
45233;DHT22;30969;51.052;17.056;2022-09-09T00:47:40;18.70;77.20
45233;DHT22;30969;51.052;17.056;2022-09-09T00:52:52;18.70;77.50
45233;DHT22;30969;51.052;17.056;2022-09-09T00:58:02;18.60;77.20
45233;DHT22;30969;51.052;17.056;2022-09-09T01:03:20;18.60;77.20
45233;DHT22;30969;51.052;17.056;2022-09-09T01:08:43;18.60;77.60
45233;DHT22;30969;51.052;17.056;2022-09-09T01:13:58;18.50;77.50
45233;DHT22;30969;51.052;17.056;2022-09-09T01:19:07;18.50;77.50
45233;DHT22;30969;51.052;17.056;2022-09-09T01:24:23;18.40;77.00
45233;DHT22;30969;51.052;17.056;2022-09-09T01:29:30;18.30;77.00
45233;DHT22;30969;51.052;17.056;2022-09-09T01:34:36;18.20;77.20
45233;DHT22;30969;51.052;17.056;2022-09-09T01:39:43;18.20;77.50
45233;DHT22;30969;51.052;17.056;2022-09-09T01:44:49;18.10;77.50
45233;DHT22;30969;51.052;17.056;2022-09-09T01:49:52;18.20;77.40
45233;DHT22;30969;51.052;17.056;2022-09-09T01:54:56;18.20;77.20
45233;DHT22;30969;51.052;17.056;2022-09-09T02:00:05;18.10;76.80
45233;DHT22;30969;51.052;17.056;2022-09-09T02:05:17;18.10;76.60
45233;DHT22;30969;51.052;17.056;2022-09-09T02:10:31;18.00;76.50
45233;DHT22;30969;51.052;17.056;2022-09-09T02:15:42;18.00;76.30
45233;DHT22;30969;51.052;17.056;2022-09-09T02:20:47;17.90;76.10
45233;DHT22;30969;51.052;17.056;2022-09-09T02:25:52;17.90;76.10
45233;DHT22;30969;51.052;17.056;2022-09-09T02:30:58;17.80;76.10
45233;DHT22;30969;51.052;17.056;2022-09-09T02:36:05;17.80;76.30
45233;DHT22;30969;51.052;17.056;2022-09-09T02:41:12;17.80;76.60
45233;DHT22;30969;51.052;17.056;2022-09-09T02:46:28;17.70;76.90
45233;DHT22;30969;51.052;17.056;2022-09-09T02:51:40;17.70;77.00
45233;DHT22;30969;51.052;17.056;2022-09-09T02:56:51;17.70;76.90
45233;DHT22;30969;51.052;17.056;2022-09-09T03:01:57;17.70;76.90
45233;DHT22;30969;51.052;17.056;2022-09-09T03:07:01;17.60;77.00
45233;DHT22;30969;51.052;17.056;2022-09-09T03:12:06;17.60;77.30
45233;DHT22;30969;51.052;17.056;2022-09-09T03:17:11;17.50;77.30
45233;DHT22;30969;51.052;17.056;2022-09-09T03:27:38;17.50;77.10
45233;DHT22;30969;51.052;17.056;2022-09-09T03:32:43;17.50;77.30
45233;DHT22;30969;51.052;17.056;2022-09-09T03:37:50;17.50;77.50
45233;DHT22;30969;51.052;17.056;2022-09-09T03:42:53;17.40;77.40
45233;DHT22;30969;51.052;17.056;2022-09-09T03:47:58;17.40;77.60
45233;DHT22;30969;51.052;17.056;2022-09-09T03:53:02;17.40;77.70
45233;DHT22;30969;51.052;17.056;2022-09-09T03:58:05;17.30;77.60
45233;DHT22;30969;51.052;17.056;2022-09-09T04:03:10;17.30;77.70
45233;DHT22;30969;51.052;17.056;2022-09-09T04:08:14;17.30;77.80
45233;DHT22;30969;51.052;17.056;2022-09-09T04:13:18;17.30;77.90
45233;DHT22;30969;51.052;17.056;2022-09-09T04:18:24;17.30;77.80
45233;DHT22;30969;51.052;17.056;2022-09-09T04:23:28;17.30;77.80
45233;DHT22;30969;51.052;17.056;2022-09-09T04:28:33;17.20;77.80
45233;DHT22;30969;51.052;17.056;2022-09-09T04:33:39;17.20;77.70
45233;DHT22;30969;51.052;17.056;2022-09-09T04:38:42;17.10;77.60
45233;DHT22;30969;51.052;17.056;2022-09-09T04:43:46;17.10;77.70
45233;DHT22;30969;51.052;17.056;2022-09-09T04:48:51;17.10;77.90
45233;DHT22;30969;51.052;17.056;2022-09-09T04:53:55;17.10;78.90
45233;DHT22;30969;51.052;17.056;2022-09-09T04:58:59;17.10;77.80
45233;DHT22;30969;51.052;17.056;2022-09-09T05:04:06;17.20;77.80
45233;DHT22;30969;51.052;17.056;2022-09-09T05:09:10;17.10;77.90
45233;DHT22;30969;51.052;17.056;2022-09-09T05:14:14;17.20;78.10
45233;DHT22;30969;51.052;17.056;2022-09-09T05:19:18;17.20;78.20
45233;DHT22;30969;51.052;17.056;2022-09-09T05:24:22;17.40;78.50
45233;DHT22;30969;51.052;17.056;2022-09-09T05:29:25;17.50;79.30
45233;DHT22;30969;51.052;17.056;2022-09-09T05:34:30;17.60;78.80
45233;DHT22;30969;51.052;17.056;2022-09-09T05:39:34;17.70;78.20
45233;DHT22;30969;51.052;17.056;2022-09-09T05:44:39;17.80;78.00
45233;DHT22;30969;51.052;17.056;2022-09-09T05:49:46;17.80;78.20
45233;DHT22;30969;51.052;17.056;2022-09-09T05:54:50;17.90;78.20
45233;DHT22;30969;51.052;17.056;2022-09-09T05:59:53;18.00;77.80
45233;DHT22;30969;51.052;17.056;2022-09-09T06:04:58;18.00;77.70
45233;DHT22;30969;51.052;17.056;2022-09-09T06:10:02;18.10;77.60
45233;DHT22;30969;51.052;17.056;2022-09-09T06:15:06;18.20;77.70
45233;DHT22;30969;51.052;17.056;2022-09-09T06:20:12;18.20;77.50
45233;DHT22;30969;51.052;17.056;2022-09-09T06:25:16;18.30;77.60
45233;DHT22;30969;51.052;17.056;2022-09-09T06:30:20;18.40;77.80
45233;DHT22;30969;51.052;17.056;2022-09-09T06:35:25;18.50;78.00
45233;DHT22;30969;51.052;17.056;2022-09-09T06:40:29;18.60;78.00
45233;DHT22;30969;51.052;17.056;2022-09-09T06:45:32;18.80;77.60
45233;DHT22;30969;51.052;17.056;2022-09-09T06:50:39;18.90;77.50
45233;DHT22;30969;51.052;17.056;2022-09-09T06:55:43;19.00;77.40
45233;DHT22;30969;51.052;17.056;2022-09-09T07:00:47;19.10;77.10
45233;DHT22;30969;51.052;17.056;2022-09-09T07:05:57;19.30;76.60
45233;DHT22;30969;51.052;17.056;2022-09-09T07:11:05;19.40;76.50
45233;DHT22;30969;51.052;17.056;2022-09-09T07:16:15;19.50;76.60
45233;DHT22;30969;51.052;17.056;2022-09-09T07:21:20;19.70;76.80
45233;DHT22;30969;51.052;17.056;2022-09-09T07:26:26;19.80;77.40
45233;DHT22;30969;51.052;17.056;2022-09-09T07:31:32;19.90;75.90
45233;DHT22;30969;51.052;17.056;2022-09-09T07:36:39;20.00;75.30
45233;DHT22;30969;51.052;17.056;2022-09-09T07:55:39;20.30;72.90
45233;DHT22;30969;51.052;17.056;2022-09-09T08:00:43;20.40;72.20
45233;DHT22;30969;51.052;17.056;2022-09-09T08:05:46;20.50;71.50
45233;DHT22;30969;51.052;17.056;2022-09-09T08:10:51;20.50;70.10
45233;DHT22;30969;51.052;17.056;2022-09-09T08:15:55;20.60;70.20
45233;DHT22;30969;51.052;17.056;2022-09-09T08:21:05;20.80;69.80
45233;DHT22;30969;51.052;17.056;2022-09-09T08:26:12;20.90;69.80
45233;DHT22;30969;51.052;17.056;2022-09-09T08:31:18;21.00;69.30
45233;DHT22;30969;51.052;17.056;2022-09-09T08:36:24;21.00;67.90
45233;DHT22;30969;51.052;17.056;2022-09-09T08:41:55;21.10;68.90
45233;DHT22;30969;51.052;17.056;2022-09-09T08:47:08;21.20;68.50
45233;DHT22;30969;51.052;17.056;2022-09-09T08:52:17;21.40;66.60
45233;DHT22;30969;51.052;17.056;2022-09-09T08:57:26;21.60;65.90
45233;DHT22;30969;51.052;17.056;2022-09-09T09:02:41;21.70;65.20
45233;DHT22;30969;51.052;17.056;2022-09-09T09:08:01;21.80;64.50
45233;DHT22;30969;51.052;17.056;2022-09-09T09:13:15;21.80;62.80
45233;DHT22;30969;51.052;17.056;2022-09-09T09:18:20;21.80;60.60
45233;DHT22;30969;51.052;17.056;2022-09-09T09:23:26;21.80;60.80
45233;DHT22;30969;51.052;17.056;2022-09-09T09:28:35;21.80;61.40
45233;DHT22;30969;51.052;17.056;2022-09-09T09:33:46;21.80;61.00
45233;DHT22;30969;51.052;17.056;2022-09-09T09:38:54;21.80;59.10
45233;DHT22;30969;51.052;17.056;2022-09-09T09:44:25;21.80;60.10
45233;DHT22;30969;51.052;17.056;2022-09-09T09:49:29;21.90;60.70
45233;DHT22;30969;51.052;17.056;2022-09-09T09:54:38;21.90;61.00
45233;DHT22;30969;51.052;17.056;2022-09-09T09:59:43;22.00;60.20
45233;DHT22;30969;51.052;17.056;2022-09-09T10:04:48;22.00;59.40
45233;DHT22;30969;51.052;17.056;2022-09-09T10:09:56;22.10;59.60
45233;DHT22;30969;51.052;17.056;2022-09-09T10:15:07;22.20;59.90
45233;DHT22;30969;51.052;17.056;2022-09-09T10:20:23;22.30;59.60
45233;DHT22;30969;51.052;17.056;2022-09-09T10:25:38;22.30;58.30
45233;DHT22;30969;51.052;17.056;2022-09-09T10:30:56;22.40;59.30
45233;DHT22;30969;51.052;17.056;2022-09-09T10:36:12;22.40;57.50
45233;DHT22;30969;51.052;17.056;2022-09-09T10:41:19;22.50;58.90
45233;DHT22;30969;51.052;17.056;2022-09-09T10:46:34;22.50;58.90
45233;DHT22;30969;51.052;17.056;2022-09-09T10:51:46;22.60;59.00
45233;DHT22;30969;51.052;17.056;2022-09-09T10:56:56;22.60;58.20
45233;DHT22;30969;51.052;17.056;2022-09-09T11:02:07;22.60;57.00
45233;DHT22;30969;51.052;17.056;2022-09-09T11:07:24;22.80;58.50
45233;DHT22;30969;51.052;17.056;2022-09-09T11:12:30;22.90;56.50
45233;DHT22;30969;51.052;17.056;2022-09-09T11:17:39;23.10;55.20
45233;DHT22;30969;51.052;17.056;2022-09-09T11:22:49;23.20;55.70
45233;DHT22;30969;51.052;17.056;2022-09-09T11:28:07;23.30;55.10
45233;DHT22;30969;51.052;17.056;2022-09-09T11:33:49;23.30;55.10
45233;DHT22;30969;51.052;17.056;2022-09-09T11:39:01;23.50;54.40
45233;DHT22;30969;51.052;17.056;2022-09-09T11:44:11;23.60;54.00
45233;DHT22;30969;51.052;17.056;2022-09-09T11:49:27;23.70;52.80
45233;DHT22;30969;51.052;17.056;2022-09-09T11:54:32;23.80;53.20
45233;DHT22;30969;51.052;17.056;2022-09-09T11:59:50;23.90;52.70
45233;DHT22;30969;51.052;17.056;2022-09-09T12:04:59;24.00;52.70
45233;DHT22;30969;51.052;17.056;2022-09-09T12:10:05;24.10;52.10
45233;DHT22;30969;51.052;17.056;2022-09-09T12:15:25;24.10;51.90
45233;DHT22;30969;51.052;17.056;2022-09-09T12:20:34;24.20;50.90
45233;DHT22;30969;51.052;17.056;2022-09-09T12:25:52;24.20;51.40
45233;DHT22;30969;51.052;17.056;2022-09-09T12:31:00;24.30;51.80
45233;DHT22;30969;51.052;17.056;2022-09-09T12:36:12;24.50;51.10
45233;DHT22;30969;51.052;17.056;2022-09-09T12:41:21;24.50;51.60
45233;DHT22;30969;51.052;17.056;2022-09-09T12:46:33;24.60;51.50
45233;DHT22;30969;51.052;17.056;2022-09-09T12:51:43;24.80;51.60
45233;DHT22;30969;51.052;17.056;2022-09-09T12:56:48;24.90;51.60
45233;DHT22;30969;51.052;17.056;2022-09-09T13:01:56;24.90;51.20
45233;DHT22;30969;51.052;17.056;2022-09-09T13:07:07;25.00;50.70
45233;DHT22;30969;51.052;17.056;2022-09-09T13:12:15;25.10;50.80
45233;DHT22;30969;51.052;17.056;2022-09-09T13:17:21;25.20;50.70
45233;DHT22;30969;51.052;17.056;2022-09-09T13:22:31;25.30;50.50
45233;DHT22;30969;51.052;17.056;2022-09-09T13:27:37;25.40;49.70
45233;DHT22;30969;51.052;17.056;2022-09-09T13:32:41;25.40;50.60
45233;DHT22;30969;51.052;17.056;2022-09-09T13:37:46;25.60;49.70
45233;DHT22;30969;51.052;17.056;2022-09-09T13:42:52;25.70;49.80
45233;DHT22;30969;51.052;17.056;2022-09-09T13:48:08;25.70;48.80
45233;DHT22;30969;51.052;17.056;2022-09-09T13:53:13;25.80;49.00
45233;DHT22;30969;51.052;17.056;2022-09-09T13:58:17;25.90;49.50
45233;DHT22;30969;51.052;17.056;2022-09-09T14:03:21;26.10;49.50
45233;DHT22;30969;51.052;17.056;2022-09-09T14:08:26;26.20;48.40
45233;DHT22;30969;51.052;17.056;2022-09-09T14:13:35;26.30;47.30
45233;DHT22;30969;51.052;17.056;2022-09-09T14:18:39;26.40;47.50
45233;DHT22;30969;51.052;17.056;2022-09-09T14:23:44;26.50;45.80
45233;DHT22;30969;51.052;17.056;2022-09-09T14:28:48;26.60;47.00
45233;DHT22;30969;51.052;17.056;2022-09-09T14:33:58;26.70;44.30
45233;DHT22;30969;51.052;17.056;2022-09-09T14:39:03;26.70;44.60
45233;DHT22;30969;51.052;17.056;2022-09-09T14:44:07;26.70;43.40
45233;DHT22;30969;51.052;17.056;2022-09-09T14:49:11;26.70;45.00
45233;DHT22;30969;51.052;17.056;2022-09-09T14:54:17;26.70;45.10
45233;DHT22;30969;51.052;17.056;2022-09-09T14:59:21;26.80;45.30
45233;DHT22;30969;51.052;17.056;2022-09-09T15:04:25;26.80;44.80
45233;DHT22;30969;51.052;17.056;2022-09-09T15:09:31;26.80;44.70
45233;DHT22;30969;51.052;17.056;2022-09-09T15:14:34;26.80;45.50
45233;DHT22;30969;51.052;17.056;2022-09-09T15:19:38;26.80;45.20
45233;DHT22;30969;51.052;17.056;2022-09-09T15:24:49;26.80;45.90
45233;DHT22;30969;51.052;17.056;2022-09-09T15:29:52;26.80;45.80
45233;DHT22;30969;51.052;17.056;2022-09-09T15:34:56;26.80;45.70
45233;DHT22;30969;51.052;17.056;2022-09-09T15:40:03;26.80;45.70
45233;DHT22;30969;51.052;17.056;2022-09-09T15:45:09;26.70;45.10
45233;DHT22;30969;51.052;17.056;2022-09-09T15:50:13;26.80;45.00
45233;DHT22;30969;51.052;17.056;2022-09-09T15:55:18;26.90;44.80
45233;DHT22;30969;51.052;17.056;2022-09-09T16:00:22;26.80;44.50
45233;DHT22;30969;51.052;17.056;2022-09-09T16:05:26;26.80;45.00
45233;DHT22;30969;51.052;17.056;2022-09-09T16:10:31;26.70;45.60
45233;DHT22;30969;51.052;17.056;2022-09-09T16:15:35;26.70;45.90
45233;DHT22;30969;51.052;17.056;2022-09-09T16:20:40;26.60;45.80
45233;DHT22;30969;51.052;17.056;2022-09-09T16:25:53;26.50;45.90
45233;DHT22;30969;51.052;17.056;2022-09-09T16:30:56;26.40;46.00
45233;DHT22;30969;51.052;17.056;2022-09-09T16:36:05;26.30;46.00
45233;DHT22;30969;51.052;17.056;2022-09-09T16:41:11;26.20;46.10
45233;DHT22;30969;51.052;17.056;2022-09-09T16:46:18;26.00;46.10
45233;DHT22;30969;51.052;17.056;2022-09-09T16:51:24;25.90;46.40
45233;DHT22;30969;51.052;17.056;2022-09-09T16:56:31;25.80;46.60
45233;DHT22;30969;51.052;17.056;2022-09-09T17:01:38;25.70;46.90
45233;DHT22;30969;51.052;17.056;2022-09-09T17:06:45;25.60;47.00
45233;DHT22;30969;51.052;17.056;2022-09-09T17:11:51;25.50;47.20
45233;DHT22;30969;51.052;17.056;2022-09-09T17:16:55;25.40;47.70
45233;DHT22;30969;51.052;17.056;2022-09-09T17:22:19;25.30;47.90
45233;DHT22;30969;51.052;17.056;2022-09-09T17:27:24;25.20;48.30
45233;DHT22;30969;51.052;17.056;2022-09-09T17:32:28;25.10;48.60
45233;DHT22;30969;51.052;17.056;2022-09-09T17:37:32;25.10;49.90
45233;DHT22;30969;51.052;17.056;2022-09-09T17:42:37;25.10;50.10
45233;DHT22;30969;51.052;17.056;2022-09-09T17:47:41;25.20;50.20
45233;DHT22;30969;51.052;17.056;2022-09-09T17:52:45;25.20;50.40
45233;DHT22;30969;51.052;17.056;2022-09-09T17:57:50;25.20;50.60
45233;DHT22;30969;51.052;17.056;2022-09-09T18:02:54;25.20;50.90
45233;DHT22;30969;51.052;17.056;2022-09-09T18:07:58;25.20;51.10
45233;DHT22;30969;51.052;17.056;2022-09-09T18:13:02;25.20;51.30
45233;DHT22;30969;51.052;17.056;2022-09-09T18:18:08;25.20;51.40
45233;DHT22;30969;51.052;17.056;2022-09-09T18:23:12;25.10;52.60
45233;DHT22;30969;51.052;17.056;2022-09-09T18:28:17;25.20;51.40
45233;DHT22;30969;51.052;17.056;2022-09-09T18:33:26;25.20;50.80
45233;DHT22;30969;51.052;17.056;2022-09-09T18:38:31;25.20;50.10
45233;DHT22;30969;51.052;17.056;2022-09-09T18:43:38;25.20;50.00
45233;DHT22;30969;51.052;17.056;2022-09-09T18:48:43;25.30;50.40
45233;DHT22;30969;51.052;17.056;2022-09-09T18:53:52;25.30;50.70
45233;DHT22;30969;51.052;17.056;2022-09-09T18:58:59;25.20;51.20
45233;DHT22;30969;51.052;17.056;2022-09-09T19:04:04;25.20;51.40
45233;DHT22;30969;51.052;17.056;2022-09-09T19:09:14;25.20;51.30
45233;DHT22;30969;51.052;17.056;2022-09-09T19:14:20;25.20;52.20
45233;DHT22;30969;51.052;17.056;2022-09-09T19:19:26;25.20;50.90
45233;DHT22;30969;51.052;17.056;2022-09-09T19:24:31;25.20;50.70
45233;DHT22;30969;51.052;17.056;2022-09-09T19:29:36;25.00;51.00
45233;DHT22;30969;51.052;17.056;2022-09-09T19:34:43;25.00;51.70
45233;DHT22;30969;51.052;17.056;2022-09-09T19:39:47;24.90;52.30
45233;DHT22;30969;51.052;17.056;2022-09-09T19:44:52;24.90;52.40
45233;DHT22;30969;51.052;17.056;2022-09-09T19:49:56;24.80;52.50
45233;DHT22;30969;51.052;17.056;2022-09-09T19:54:59;24.80;53.00
45233;DHT22;30969;51.052;17.056;2022-09-09T20:00:05;24.80;53.10
45233;DHT22;30969;51.052;17.056;2022-09-09T20:05:11;24.70;53.30
45233;DHT22;30969;51.052;17.056;2022-09-09T20:10:15;24.80;53.40
45233;DHT22;30969;51.052;17.056;2022-09-09T20:15:19;24.70;53.40
45233;DHT22;30969;51.052;17.056;2022-09-09T20:20:23;24.80;53.40
45233;DHT22;30969;51.052;17.056;2022-09-09T20:25:26;24.70;53.40
45233;DHT22;30969;51.052;17.056;2022-09-09T20:30:31;24.70;53.60
45233;DHT22;30969;51.052;17.056;2022-09-09T20:35:39;24.60;53.70
45233;DHT22;30969;51.052;17.056;2022-09-09T20:40:42;24.60;53.90
45233;DHT22;30969;51.052;17.056;2022-09-09T20:45:47;24.60;54.10
45233;DHT22;30969;51.052;17.056;2022-09-09T20:50:51;24.50;54.10
45233;DHT22;30969;51.052;17.056;2022-09-09T20:55:58;24.50;53.80
45233;DHT22;30969;51.052;17.056;2022-09-09T21:01:04;24.40;54.10
45233;DHT22;30969;51.052;17.056;2022-09-09T21:06:09;24.40;55.60
45233;DHT22;30969;51.052;17.056;2022-09-09T21:11:13;24.30;55.40
45233;DHT22;30969;51.052;17.056;2022-09-09T21:16:18;24.20;55.90
45233;DHT22;30969;51.052;17.056;2022-09-09T21:21:22;24.10;56.00
45233;DHT22;30969;51.052;17.056;2022-09-09T21:26:27;24.10;56.70
45233;DHT22;30969;51.052;17.056;2022-09-09T21:31:32;24.10;57.00
45233;DHT22;30969;51.052;17.056;2022-09-09T21:36:36;24.00;57.20
45233;DHT22;30969;51.052;17.056;2022-09-09T21:41:39;23.90;57.60
45233;DHT22;30969;51.052;17.056;2022-09-09T21:46:44;23.90;57.90
45233;DHT22;30969;51.052;17.056;2022-09-09T21:51:47;23.90;58.20
45233;DHT22;30969;51.052;17.056;2022-09-09T21:56:52;23.90;58.30
45233;DHT22;30969;51.052;17.056;2022-09-09T22:01:57;23.90;57.90
45233;DHT22;30969;51.052;17.056;2022-09-09T22:07:00;23.80;58.50
45233;DHT22;30969;51.052;17.056;2022-09-09T22:12:04;23.70;58.00
45233;DHT22;30969;51.052;17.056;2022-09-09T22:17:09;23.60;57.80
45233;DHT22;30969;51.052;17.056;2022-09-09T22:22:13;23.40;58.00
45233;DHT22;30969;51.052;17.056;2022-09-09T22:27:17;23.30;58.40
45233;DHT22;30969;51.052;17.056;2022-09-09T22:32:21;23.20;58.80
45233;DHT22;30969;51.052;17.056;2022-09-09T22:37:25;23.00;59.00
45233;DHT22;30969;51.052;17.056;2022-09-09T22:42:29;22.90;59.90
45233;DHT22;30969;51.052;17.056;2022-09-09T22:47:34;22.90;60.40
45233;DHT22;30969;51.052;17.056;2022-09-09T22:52:37;22.80;60.70
45233;DHT22;30969;51.052;17.056;2022-09-09T22:57:40;22.80;61.00
45233;DHT22;30969;51.052;17.056;2022-09-09T23:02:45;22.60;61.20
45233;DHT22;30969;51.052;17.056;2022-09-09T23:07:51;22.60;61.80
45233;DHT22;30969;51.052;17.056;2022-09-09T23:12:57;22.50;61.80
45233;DHT22;30969;51.052;17.056;2022-09-09T23:18:02;22.30;61.70
45233;DHT22;30969;51.052;17.056;2022-09-09T23:23:06;22.10;61.90
45233;DHT22;30969;51.052;17.056;2022-09-09T23:28:09;21.90;61.50
45233;DHT22;30969;51.052;17.056;2022-09-09T23:33:14;21.60;61.80
45233;DHT22;30969;51.052;17.056;2022-09-09T23:38:18;21.40;62.50
45233;DHT22;30969;51.052;17.056;2022-09-09T23:43:22;21.30;63.30
45233;DHT22;30969;51.052;17.056;2022-09-09T23:48:30;21.20;63.50
45233;DHT22;30969;51.052;17.056;2022-09-09T23:53:35;21.20;63.70
45233;DHT22;30969;51.052;17.056;2022-09-09T23:58:38;21.10;64.00
